Time;durP1;ratioP1;P1;durP2;ratioP2;P2;SDS_P1;SDS_P2;PMS_P1;PMS_P2;Temp;Humidity;BMP_temperature;BMP_pressure;BME280_temperature;BME280_humidity;BME280_pressure;Samples;Min_cycle;Max_cycle;Signal;HPM_P1;HPM_P2
2022/04/14 00:01:17;;;;;;;23.38;13.77;;;;;;;12.80;100.00;100930.94;5987939;29;20046;-90
2022/04/14 00:04:19;;;;;;;23.17;14.00;;;;;;;12.92;100.00;100929.09;5987390;29;20049;-89
2022/04/14 00:07:21;;;;;;;20.80;12.57;;;;;;;13.12;100.00;100925.66;5978859;29;20571;-89
2022/04/14 00:10:23;;;;;;;23.05;12.93;;;;;;;12.90;100.00;100931.81;5984531;29;20432;-89
2022/04/14 00:13:25;;;;;;;20.90;12.18;;;;;;;12.84;100.00;100941.88;5986412;29;20098;-89
2022/04/14 00:16:27;;;;;;;19.00;12.23;;;;;;;12.74;100.00;100939.19;5986849;29;20048;-89
2022/04/14 00:19:29;;;;;;;24.30;12.98;;;;;;;12.78;100.00;100939.78;5986908;29;20436;-89
2022/04/14 00:22:32;;;;;;;21.83;12.52;;;;;;;12.74;100.00;100936.59;5990105;29;20046;-89
2022/04/14 00:25:33;;;;;;;21.73;12.55;;;;;;;12.82;100.00;100943.78;5984453;29;20049;-90
2022/04/14 00:28:35;;;;;;;20.35;12.40;;;;;;;12.68;100.00;100940.53;5988141;29;20045;-90
2022/04/14 00:31:38;;;;;;;22.83;13.18;;;;;;;12.58;100.00;100947.41;5987425;29;20049;-90
2022/04/14 00:34:41;;;;;;;22.77;12.73;;;;;;;12.55;100.00;100929.50;5983695;29;20046;-90
2022/04/14 00:37:43;;;;;;;23.58;12.93;;;;;;;12.50;100.00;100931.66;5987635;29;20057;-90
2022/04/14 00:40:47;;;;;;;22.25;12.65;;;;;;;12.52;100.00;100934.94;5987129;29;20056;-91
2022/04/14 00:43:55;;;;;;;24.52;13.48;;;;;;;12.58;100.00;100936.22;5988142;29;20058;-90
2022/04/14 00:46:57;;;;;;;24.05;12.82;;;;;;;12.71;100.00;100945.47;5986498;29;20050;-90
2022/04/14 00:49:59;;;;;;;21.45;11.52;;;;;;;12.70;100.00;100945.63;6004659;29;20069;-93
2022/04/14 00:53:01;;;;;;;20.63;12.73;;;;;;;12.64;100.00;100951.28;5989564;29;20042;-93
2022/04/14 00:56:04;;;;;;;24.75;13.05;;;;;;;12.65;100.00;100958.97;5983626;29;20046;-93
2022/04/14 00:59:06;;;;;;;23.65;12.68;;;;;;;12.61;100.00;100954.97;5986887;29;20131;-93
2022/04/14 01:02:11;;;;;;;20.27;11.70;;;;;;;12.59;100.00;100954.25;5984632;29;20058;-95
2022/04/14 01:05:15;;;;;;;23.90;13.68;;;;;;;12.44;100.00;100955.50;5982405;29;20046;-95
2022/04/14 01:08:17;;;;;;;24.67;12.82;;;;;;;12.42;100.00;100958.22;5991634;29;20049;-95
2022/04/14 01:11:20;;;;;;;22.73;12.82;;;;;;;12.41;100.00;100960.94;5988716;29;20054;-95
2022/04/14 01:14:27;;;;;;;25.95;13.77;;;;;;;12.49;100.00;100963.72;5989206;29;20054;-94
2022/04/14 01:17:29;;;;;;;25.48;13.98;;;;;;;12.38;100.00;100962.00;5989006;29;20076;-95
2022/04/14 01:20:31;;;;;;;23.02;14.13;;;;;;;12.34;100.00;100964.97;5988592;29;20497;-95
2022/04/14 01:23:45;;;;;;;21.17;12.48;;;;;;;12.34;100.00;100970.16;5987969;29;20476;-95
2022/04/14 01:26:47;;;;;;;24.67;13.73;;;;;;;12.33;100.00;100961.53;5987472;29;20081;-95
2022/04/14 01:29:51;;;;;;;22.27;14.10;;;;;;;12.34;100.00;100970.16;5987141;29;20732;-95
2022/04/14 01:32:53;;;;;;;24.35;14.15;;;;;;;12.34;100.00;100967.56;5994300;29;20179;-95
2022/04/14 01:35:56;;;;;;;27.05;14.25;;;;;;;12.33;100.00;100960.72;5994972;29;20066;-96
2022/04/14 01:38:57;;;;;;;25.27;14.32;;;;;;;12.38;100.00;100956.81;5985604;29;20066;-96
2022/04/14 01:42:00;;;;;;;26.52;14.63;;;;;;;12.39;100.00;100974.03;5986282;29;20112;-96
2022/04/14 01:45:02;;;;;;;24.08;13.65;;;;;;;12.46;100.00;100970.00;5995331;29;20045;-96
2022/04/14 01:48:04;;;;;;;26.25;14.52;;;;;;;12.41;100.00;100977.34;5994903;29;20049;-96
2022/04/14 01:51:06;;;;;;;24.50;14.95;;;;;;;12.39;100.00;100979.22;5992410;29;20038;-95
2022/04/14 01:54:08;;;;;;;25.17;14.23;;;;;;;12.37;100.00;100986.31;5994030;29;20519;-96
2022/04/14 01:57:10;;;;;;;30.23;15.65;;;;;;;12.38;100.00;100977.59;5989905;29;20069;-95
2022/04/14 02:00:14;;;;;;;26.30;15.07;;;;;;;12.39;100.00;100986.19;5991347;29;20159;-96
2022/04/14 02:03:16;;;;;;;27.80;15.50;;;;;;;12.41;100.00;100976.50;5993723;29;20122;-95
2022/04/14 02:06:18;;;;;;;26.23;14.35;;;;;;;12.48;100.00;100980.28;5990622;29;20489;-95
2022/04/14 02:09:20;;;;;;;23.13;13.25;;;;;;;12.48;100.00;100973.31;5987383;29;20057;-94
2022/04/14 02:12:26;;;;;;;22.92;12.65;;;;;;;12.32;100.00;100977.22;5977751;29;20140;-95
2022/04/14 02:15:27;;;;;;;22.60;12.75;;;;;;;12.30;100.00;100972.19;5990522;29;20524;-95
2022/04/14 02:18:30;;;;;;;16.17;9.57;;;;;;;12.24;100.00;100970.06;5986980;29;20050;-95
2022/04/14 02:21:31;;;;;;;17.10;10.00;;;;;;;12.21;100.00;100967.72;5990507;29;20173;-95
2022/04/14 02:24:34;;;;;;;15.38;9.70;;;;;;;12.17;100.00;100979.25;5985472;29;20042;-95
2022/04/14 02:27:36;;;;;;;16.52;9.10;;;;;;;12.12;100.00;100977.03;5994092;29;20440;-94
2022/04/14 02:30:38;;;;;;;11.68;7.15;;;;;;;12.24;100.00;100976.06;6000289;29;20058;-94
2022/04/14 02:33:40;;;;;;;10.48;6.82;;;;;;;12.08;100.00;100970.44;5993880;29;20129;-95
2022/04/14 02:36:41;;;;;;;9.15;6.13;;;;;;;11.89;100.00;100971.03;5989727;29;20469;-95
2022/04/14 02:39:43;;;;;;;11.90;6.82;;;;;;;11.97;100.00;100965.25;6006156;29;20061;-95
2022/04/14 02:42:46;;;;;;;7.80;5.57;;;;;;;11.89;100.00;100971.03;5995286;29;20065;-94
2022/04/14 02:45:48;;;;;;;8.52;5.63;;;;;;;11.80;100.00;100967.38;5984785;29;20054;-95
2022/04/14 02:48:50;;;;;;;9.23;5.93;;;;;;;11.84;100.00;100973.13;5996162;29;20492;-93
2022/04/14 02:51:52;;;;;;;9.68;5.85;;;;;;;11.80;100.00;100963.94;5997458;29;20053;-92
2022/04/14 02:54:54;;;;;;;9.00;5.85;;;;;;;11.81;100.00;100957.81;5992081;29;20424;-92
2022/04/14 02:57:58;;;;;;;9.20;5.78;;;;;;;11.66;100.00;100967.59;5983908;29;20057;-92
2022/04/14 03:01:01;;;;;;;8.23;5.63;;;;;;;11.62;100.00;100963.56;5997525;29;20132;-93
2022/04/14 03:04:03;;;;;;;8.65;5.40;;;;;;;11.53;100.00;100965.13;5985344;29;20672;-93
2022/04/14 03:07:05;;;;;;;8.32;5.25;;;;;;;11.47;100.00;100959.56;5989757;29;20054;-91
2022/04/14 03:10:08;;;;;;;8.18;5.25;;;;;;;11.56;100.00;100958.88;5983542;29;20046;-91
2022/04/14 03:13:09;;;;;;;8.63;6.15;;;;;;;11.48;100.00;100958.59;5989964;29;20907;-91
2022/04/14 03:16:13;;;;;;;9.23;5.95;;;;;;;11.45;100.00;100962.25;5997915;29;20403;-91
2022/04/14 03:19:15;;;;;;;10.77;5.82;;;;;;;11.41;100.00;100963.44;5983200;29;20363;-92
2022/04/14 03:22:17;;;;;;;10.68;6.32;;;;;;;11.38;100.00;100959.31;5987790;29;20041;-92
2022/04/14 03:25:19;;;;;;;9.15;5.82;;;;;;;11.41;100.00;100960.84;5985932;29;20050;-91
2022/04/14 03:28:21;;;;;;;8.32;5.40;;;;;;;11.51;100.00;100950.63;5994518;29;20050;-93
2022/04/14 03:31:23;;;;;;;10.73;5.88;;;;;;;11.45;100.00;100953.66;5990150;29;20106;-93
2022/04/14 03:34:25;;;;;;;8.93;6.40;;;;;;;11.37;100.00;100949.88;5972673;29;20404;-91
2022/04/14 03:37:26;;;;;;;8.00;6.03;;;;;;;11.35;100.00;100946.59;5995790;29;20465;-90
2022/04/14 03:40:28;;;;;;;9.07;5.80;;;;;;;11.34;100.00;100944.13;5997431;29;20747;-90
2022/04/14 03:43:35;;;;;;;8.82;5.70;;;;;;;11.29;100.00;100944.47;5999552;29;20050;-92
2022/04/14 03:46:37;;;;;;;8.45;6.25;;;;;;;11.29;100.00;100947.03;6003072;29;20591;-91
2022/04/14 03:49:39;;;;;;;8.45;6.05;;;;;;;11.27;100.00;100941.16;5980157;29;20164;-92
2022/04/14 03:52:41;;;;;;;7.97;5.43;;;;;;;11.24;100.00;100943.97;5988975;29;20464;-91
2022/04/14 03:55:43;;;;;;;7.47;5.20;;;;;;;11.30;100.00;100934.91;5990721;29;20109;-92
2022/04/14 03:58:45;;;;;;;8.02;5.35;;;;;;;11.24;100.00;100932.78;5983448;29;20046;-89
2022/04/14 04:01:47;;;;;;;6.28;5.05;;;;;;;11.18;100.00;100936.69;5988631;29;20046;-88
2022/04/14 04:04:49;;;;;;;11.40;5.28;;;;;;;11.15;100.00;100944.66;5989437;29;20049;-87
2022/04/14 04:07:51;;;;;;;11.43;5.80;;;;;;;11.15;100.00;100936.88;5993109;29;20042;-87
2022/04/14 04:10:57;;;;;;;8.90;5.05;;;;;;;11.11;100.00;100928.53;5992378;29;20061;-87
2022/04/14 04:14:04;;;;;;;9.73;5.93;;;;;;;11.06;100.00;100930.63;5996386;29;20564;-88
2022/04/14 04:17:06;;;;;;;8.15;5.40;;;;;;;11.03;100.00;100928.28;5991056;29;20085;-88
2022/04/14 04:20:08;;;;;;;8.27;4.85;;;;;;;11.02;100.00;100934.38;5994553;29;20129;-87
2022/04/14 04:23:10;;;;;;;9.93;5.40;;;;;;;10.98;100.00;100933.81;5985249;29;20202;-88
2022/04/14 04:26:13;;;;;;;7.50;4.78;;;;;;;11.01;100.00;100942.28;5995643;29;20536;-87
2022/04/14 04:29:15;;;;;;;5.47;4.13;;;;;;;11.04;100.00;100947.25;5992816;29;20042;-87
2022/04/14 04:32:17;;;;;;;7.95;4.90;;;;;;;11.03;100.00;100943.84;5979556;29;20050;-87
2022/04/14 04:35:19;;;;;;;8.18;4.85;;;;;;;10.99;100.00;100948.41;5986873;29;20056;-87
2022/04/14 04:38:21;;;;;;;7.10;4.75;;;;;;;10.94;100.00;100947.91;5991901;29;20591;-87
2022/04/14 04:41:23;;;;;;;7.50;5.13;;;;;;;10.91;100.00;100953.31;5985354;29;20041;-88
2022/04/14 04:44:26;;;;;;;7.47;5.07;;;;;;;10.89;100.00;100952.59;5995176;29;20094;-87
2022/04/14 04:47:28;;;;;;;6.35;4.93;;;;;;;10.90;100.00;100958.59;5986900;29;20054;-87
2022/04/14 04:50:32;;;;;;;7.53;4.63;;;;;;;10.88;100.00;100956.16;5989460;29;20053;-87
2022/04/14 04:53:34;;;;;;;6.93;4.72;;;;;;;10.87;100.00;100964.84;5988141;29;20300;-87
2022/04/14 04:56:36;;;;;;;7.95;4.90;;;;;;;10.87;100.00;100962.25;5993478;29;20042;-87
2022/04/14 04:59:38;;;;;;;7.47;4.50;;;;;;;10.88;100.00;100973.44;5992642;29;20128;-87
2022/04/14 05:02:40;;;;;;;5.88;4.00;;;;;;;10.90;100.00;100976.72;5989035;29;20599;-86
2022/04/14 05:05:41;;;;;;;5.45;3.70;;;;;;;10.91;100.00;100966.28;5986289;29;20150;-87
2022/04/14 05:08:43;;;;;;;5.78;3.88;;;;;;;10.91;100.00;100971.44;5996128;29;20512;-87
2022/04/14 05:11:45;;;;;;;6.53;4.25;;;;;;;10.90;100.00;100980.16;5987915;29;20056;-87
2022/04/14 05:14:47;;;;;;;7.35;4.05;;;;;;;10.91;100.00;100979.22;5993557;29;20492;-87
2022/04/14 05:17:49;;;;;;;6.10;4.38;;;;;;;10.93;100.00;100973.91;5994581;29;20561;-87
2022/04/14 05:20:51;;;;;;;10.55;4.85;;;;;;;10.94;100.00;100975.59;5993699;29;20046;-87
2022/04/14 05:23:53;;;;;;;8.18;4.68;;;;;;;10.97;100.00;100981.34;5992219;29;20082;-86
2022/04/14 05:26:55;;;;;;;8.88;4.10;;;;;;;11.05;100.00;100990.31;5988167;29;20135;-87
2022/04/14 05:29:56;;;;;;;8.35;4.82;;;;;;;11.09;100.00;100989.16;5984372;29;20129;-87
2022/04/14 05:32:58;;;;;;;7.50;4.45;;;;;;;11.10;100.00;100988.22;5995382;29;20413;-87
2022/04/14 05:36:01;;;;;;;8.55;4.72;;;;;;;11.13;100.00;100993.16;5988102;29;20147;-87
2022/04/14 05:39:02;;;;;;;8.93;4.75;;;;;;;11.17;100.00;100997.19;5984438;29;20153;-87
2022/04/14 05:42:04;;;;;;;8.68;5.13;;;;;;;11.18;100.00;100991.91;5992832;29;20057;-87
2022/04/14 05:45:07;;;;;;;8.75;5.20;;;;;;;11.22;100.00;101008.03;5998005;29;20050;-87
2022/04/14 05:48:09;;;;;;;5.45;4.45;;;;;;;11.25;100.00;101002.63;5976110;29;20786;-87
2022/04/14 05:51:11;;;;;;;6.47;4.57;;;;;;;11.27;100.00;101010.31;5990824;29;20061;-87
2022/04/14 05:54:14;;;;;;;8.40;5.05;;;;;;;11.27;100.00;101011.13;5994823;29;20038;-87
2022/04/14 05:57:16;;;;;;;7.70;5.70;;;;;;;11.33;100.00;101015.00;5993426;29;20114;-87
2022/04/14 06:00:19;;;;;;;7.05;5.28;;;;;;;11.36;100.00;101013.03;6000160;29;20129;-87
2022/04/14 06:03:21;;;;;;;6.50;4.60;;;;;;;11.41;100.00;101012.69;5997754;29;20054;-87
2022/04/14 06:06:23;;;;;;;7.32;4.78;;;;;;;11.46;100.00;101015.78;5998380;29;20048;-87
2022/04/14 06:09:24;;;;;;;8.02;4.72;;;;;;;11.48;100.00;101006.13;5997529;29;20409;-87
2022/04/14 06:12:26;;;;;;;7.28;4.50;;;;;;;11.55;100.00;101022.03;5995382;29;20046;-87
2022/04/14 06:15:30;;;;;;;5.28;3.90;;;;;;;11.64;100.00;101022.16;6002718;29;20056;-87
2022/04/14 06:18:32;;;;;;;6.22;4.25;;;;;;;11.71;100.00;101029.50;5994169;29;20117;-87
2022/04/14 06:21:34;;;;;;;6.10;4.38;;;;;;;11.79;100.00;101033.13;5992272;29;20041;-87
2022/04/14 06:24:36;;;;;;;7.57;4.85;;;;;;;11.83;100.00;101026.78;5993864;29;20046;-87
2022/04/14 06:27:44;;;;;;;9.23;4.28;;;;;;;11.88;100.00;101026.47;5997758;29;20098;-87
2022/04/14 06:30:47;;;;;;;8.10;4.40;;;;;;;11.95;100.00;101030.25;5989353;29;20150;-88
2022/04/14 06:33:49;;;;;;;7.15;4.32;;;;;;;11.86;100.00;101036.09;5992587;29;20072;-87
2022/04/14 06:36:51;;;;;;;4.78;3.90;;;;;;;11.87;100.00;101030.00;5966191;29;20042;-87
2022/04/14 06:39:53;;;;;;;7.03;4.38;;;;;;;11.90;100.00;101028.94;5998420;29;20042;-87
2022/04/14 06:43:15;;;;;;;6.70;4.50;;;;;;;11.97;100.00;101032.72;5973533;29;20519;-87
2022/04/14 06:46:17;;;;;;;7.22;5.30;;;;;;;12.03;100.00;101032.25;5993844;29;20052;-87
2022/04/14 06:49:19;;;;;;;7.90;4.43;;;;;;;12.08;100.00;101037.91;5997506;29;20042;-87
2022/04/14 06:52:21;;;;;;;10.77;4.78;;;;;;;12.13;100.00;101022.81;6001467;29;20774;-88
2022/04/14 06:55:23;;;;;;;6.47;4.68;;;;;;;12.19;100.00;101024.91;5996052;29;20096;-88
2022/04/14 06:58:25;;;;;;;8.60;5.03;;;;;;;12.27;100.00;101017.38;6002521;29;20130;-88
2022/04/14 07:01:27;;;;;;;6.20;4.45;;;;;;;12.37;100.00;101022.69;5989245;29;20100;-87
2022/04/14 07:04:30;;;;;;;6.82;4.97;;;;;;;12.49;100.00;101026.06;5990972;29;20046;-88
2022/04/14 07:07:32;;;;;;;8.00;4.32;;;;;;;12.61;100.00;101027.69;5986455;29;20049;-88
2022/04/14 07:10:34;;;;;;;7.88;4.93;;;;;;;12.79;100.00;101032.34;5993237;29;20046;-88
2022/04/14 07:13:36;;;;;;;7.22;4.85;;;;;;;12.89;100.00;101034.09;5997353;29;20050;-88
2022/04/14 07:16:38;;;;;;;6.63;4.68;;;;;;;13.00;100.00;101030.63;5994929;29;20512;-88
2022/04/14 07:19:39;;;;;;;8.68;4.85;;;;;;;13.10;100.00;101031.53;5989326;29;20042;-88
2022/04/14 07:22:46;;;;;;;9.73;4.88;;;;;;;13.21;100.00;101027.22;5991129;29;20896;-89
2022/04/14 07:25:54;;;;;;;6.10;4.78;;;;;;;13.31;100.00;101028.16;5994092;29;20678;-89
2022/04/14 07:28:56;;;;;;;5.75;4.65;;;;;;;13.40;100.00;101023.97;5997908;29;20050;-88
2022/04/14 07:31:58;;;;;;;8.02;5.35;;;;;;;13.56;100.00;101027.78;5973922;29;20137;-89
2022/04/14 07:35:00;;;;;;;7.25;4.97;;;;;;;13.69;100.00;101034.53;5994857;29;20046;-89
2022/04/14 07:38:02;;;;;;;11.50;5.57;;;;;;;13.71;100.00;101033.47;5993512;29;20533;-89
2022/04/14 07:41:05;;;;;;;8.05;5.45;;;;;;;13.73;100.00;101036.75;5989970;29;20089;-89
2022/04/14 07:44:07;;;;;;;6.20;4.60;;;;;;;13.73;100.00;101034.16;5986649;29;20506;-89
2022/04/14 07:47:09;;;;;;;8.95;4.63;;;;;;;13.82;100.00;101027.34;5987803;29;20038;-89
2022/04/14 07:50:13;;;;;;;8.38;5.88;;;;;;;13.99;100.00;101033.75;5993428;29;20049;-90
2022/04/14 07:53:16;;;;;;;7.93;4.88;;;;;;;14.14;100.00;101040.22;6000281;29;20057;-89
2022/04/14 07:56:20;;;;;;;8.65;5.18;;;;;;;14.26;100.00;101048.78;5989853;29;20682;-90
2022/04/14 07:59:22;;;;;;;7.82;5.47;;;;;;;14.43;100.00;101047.28;5990058;29;20050;-91
2022/04/14 08:02:24;;;;;;;7.82;5.53;;;;;;;14.62;100.00;101041.34;5990930;29;20186;-91
2022/04/14 08:05:41;;;;;;;7.65;4.95;;;;;;;14.93;100.00;101036.84;5994677;29;20198;-91
2022/04/14 08:08:43;;;;;;;7.25;4.80;;;;;;;15.07;100.00;101038.22;5996828;29;20049;-91
2022/04/14 08:11:46;;;;;;;9.13;4.88;;;;;;;15.15;100.00;101040.13;5992238;29;20057;-91
2022/04/14 08:14:48;;;;;;;13.70;5.50;;;;;;;15.24;100.00;101042.72;5990411;29;20050;-92
2022/04/14 08:17:50;;;;;;;11.55;4.72;;;;;;;15.24;100.00;101037.50;5986934;29;20206;-92
2022/04/14 08:20:51;;;;;;;10.40;5.25;;;;;;;15.28;100.00;101038.06;5988729;29;20329;-92
2022/04/14 08:23:53;;;;;;;8.40;4.72;;;;;;;15.46;100.00;101031.16;5989321;29;20424;-92
2022/04/14 08:26:56;;;;;;;10.50;5.95;;;;;;;15.67;100.00;101045.81;5991364;29;20765;-93
2022/04/14 08:29:58;;;;;;;10.48;6.28;;;;;;;15.73;100.00;101042.69;5996732;29;20101;-92
2022/04/14 08:33:05;;;;;;;12.23;6.03;;;;;;;15.83;100.00;101050.47;5981589;29;20085;-92
2022/04/14 08:36:12;;;;;;;14.23;7.40;;;;;;;15.80;100.00;101046.38;5983098;29;20469;-92
2022/04/14 08:39:15;;;;;;;12.40;6.68;;;;;;;15.96;100.00;101044.94;5999647;29;20093;-93
2022/04/14 08:42:24;;;;;;;13.98;7.20;;;;;;;16.04;100.00;101051.06;5993319;29;20145;-93
2022/04/14 08:45:29;;;;;;;15.63;7.93;;;;;;;16.11;100.00;101046.09;5997293;29;20038;-93
2022/04/14 08:48:34;;;;;;;16.80;7.97;;;;;;;16.17;100.00;101049.91;5992173;29;20048;-94
2022/04/14 08:51:38;;;;;;;15.80;8.60;;;;;;;16.26;100.00;101051.66;5996175;29;20117;-94
2022/04/14 08:54:43;;;;;;;16.08;9.70;;;;;;;16.26;100.00;101049.06;5983800;29;20042;-94
2022/04/14 08:57:45;;;;;;;15.90;10.00;;;;;;;16.21;100.00;101046.88;5985185;29;20534;-96
2022/04/14 09:00:49;;;;;;;15.25;9.70;;;;;;;16.14;100.00;101041.41;5992980;29;20210;-96
2022/04/14 09:04:11;;;;;;;23.30;10.90;;;;;;;16.24;100.00;101043.97;5990917;29;20042;-96
2022/04/14 09:07:15;;;;;;;15.40;9.45;;;;;;;16.24;100.00;101045.75;5982263;29;20066;-96
2022/04/14 09:10:20;;;;;;;18.40;8.90;;;;;;;16.04;100.00;101045.84;5994584;29;20135;-96
2022/04/14 09:13:22;;;;;;;17.05;9.98;;;;;;;15.92;100.00;101045.22;6001308;29;20075;-96
2022/04/14 09:16:25;;;;;;;14.15;8.68;;;;;;;15.98;100.00;101043.81;5996176;29;20412;-96
2022/04/14 09:19:30;;;;;;;14.88;8.48;;;;;;;16.07;100.00;101047.34;6011255;29;20533;-96
2022/04/14 09:22:32;;;;;;;13.02;8.10;;;;;;;15.99;100.00;101039.41;6104959;24;20062;-96
2022/04/14 09:25:34;;;;;;;15.45;8.05;;;;;;;15.96;100.00;101040.53;6006275;29;20145;-96
2022/04/14 09:40:29;;;;;;;11.57;8.00;;;;;;;16.54;100.00;101042.00;6138418;23;20057;-96
2022/04/14 09:44:03;;;;;;;11.40;6.85;;;;;;;16.53;100.00;101035.97;6012546;29;20046;-96
2022/04/14 09:47:11;;;;;;;;;;;;;;;16.70;100.00;101036.97;6018725;29;20094;-96
2022/04/14 09:50:39;;;;;;;13.90;8.68;;;;;;;16.82;100.00;101047.22;6018504;29;19928;-96
2022/04/14 09:53:44;;;;;;;15.70;8.48;;;;;;;16.90;100.00;101045.50;6001996;29;20065;-96
2022/04/14 09:57:13;;;;;;;12.15;8.13;;;;;;;17.00;100.00;101041.03;6001261;29;20054;-96
2022/04/14 10:00:44;;;;;;;12.55;8.52;;;;;;;17.01;100.00;101037.41;5999888;29;20120;-96
2022/04/14 10:03:46;;;;;;;15.13;8.20;;;;;;;17.05;100.00;101029.31;5988244;29;20062;-96
2022/04/14 10:07:03;;;;;;;14.10;8.50;;;;;;;17.34;100.00;101027.22;5973553;29;20043;-96
2022/04/14 10:10:22;;;;;;;12.05;8.52;;;;;;;17.42;100.00;101029.91;5975561;29;20501;-96
2022/04/14 10:13:34;;;;;;;16.30;8.80;;;;;;;17.39;100.00;101024.97;5976520;29;20336;-96
2022/04/14 10:16:38;;;;;;;14.00;8.13;;;;;;;17.33;100.00;101022.97;5975618;29;20161;-96
2022/04/14 10:19:41;;;;;;;12.90;8.45;;;;;;;17.33;100.00;101030.81;5966031;29;20050;-96
2022/04/14 10:22:45;;;;;;;11.57;7.20;;;;;;;17.45;100.00;101026.16;5972790;29;20102;-96
2022/04/14 10:25:50;;;;;;;13.38;8.43;;;;;;;17.60;100.00;101023.78;5974526;29;20042;-96
2022/04/14 10:28:55;;;;;;;17.00;9.05;;;;;;;17.70;100.00;101026.31;5974174;29;20584;-96
2022/04/14 10:31:58;;;;;;;17.15;9.70;;;;;;;17.76;100.00;101017.81;5979212;29;20186;-96
2022/04/14 10:35:02;;;;;;;16.27;9.38;;;;;;;17.62;99.86;101020.03;5984637;29;20052;-96
2022/04/14 10:38:11;;;;;;;14.73;9.57;;;;;;;17.49;100.00;101019.66;5981598;29;20057;-96
2022/04/14 10:41:13;;;;;;;15.55;10.50;;;;;;;17.52;100.00;101029.81;5987677;29;20052;-96
2022/04/14 10:44:19;;;;;;;15.48;9.95;;;;;;;17.21;100.00;101024.19;5988158;29;20043;-96
2022/04/14 10:47:44;;;;;;;15.52;10.50;;;;;;;17.06;100.00;101036.16;5988772;29;20054;-96
2022/04/14 10:50:46;;;;;;;15.38;11.10;;;;;;;16.93;100.00;101031.31;5982087;29;21133;-96
2022/04/14 10:54:00;;;;;;;16.40;10.10;;;;;;;16.71;100.00;101022.91;5991083;29;20121;-96
2022/04/14 10:57:04;;;;;;;15.23;8.77;;;;;;;16.80;100.00;101021.22;5974888;29;20045;-96
2022/04/14 11:00:21;;;;;;;17.08;9.68;;;;;;;16.61;100.00;101022.16;5974125;29;20105;-96
2022/04/14 11:03:49;;;;;;;16.02;9.95;;;;;;;16.72;100.00;101018.50;5988845;29;20045;-96
2022/04/14 11:07:09;;;;;;;17.83;9.27;;;;;;;16.74;100.00;101012.19;5973341;29;20046;-96
2022/04/14 11:10:23;;;;;;;13.00;8.73;;;;;;;16.70;100.00;101021.28;5974809;29;20130;-96
2022/04/14 11:13:54;;;;;;;13.05;7.95;;;;;;;16.72;100.00;101021.09;5992958;29;20140;-96
2022/04/14 11:16:56;;;;;;;11.70;7.20;;;;;;;16.83;100.00;101012.28;5990535;29;20054;-96
2022/04/14 11:20:45;;;;;;;20.00;9.85;;;;;;;16.78;100.00;101010.91;5979716;29;20057;-96
2022/04/14 11:23:52;;;;;;;12.40;7.60;;;;;;;16.89;100.00;101006.44;5994321;29;20050;-96
2022/04/14 11:27:18;;;;;;;10.23;7.50;;;;;;;17.27;100.00;101013.13;6020024;29;20045;-96
2022/04/14 11:30:40;;;;;;;11.80;7.32;;;;;;;17.45;98.27;101010.44;6010817;29;20044;-96
2022/04/14 11:33:50;;;;;;;10.80;7.30;;;;;;;17.76;94.38;101005.56;5949405;30;20064;-96
2022/04/14 11:36:54;;;;;;;10.10;6.80;;;;;;;18.22;91.69;101003.47;5943060;29;20640;-96
2022/04/14 11:40:15;;;;;;;8.40;6.28;;;;;;;18.65;91.25;101014.69;5947604;30;20339;-96
2022/04/14 11:43:17;;;;;;;10.38;6.60;;;;;;;18.66;88.03;101005.03;5938119;30;20432;-96
2022/04/14 11:46:47;;;;;;;10.60;6.57;;;;;;;18.84;89.21;101005.72;5940019;30;20079;-96
2022/04/14 11:49:49;;;;;;;11.95;7.43;;;;;;;18.42;88.47;100993.53;5920420;30;20058;-96
2022/04/14 11:53:01;;;;;;;8.73;6.88;;;;;;;18.28;91.13;100989.75;5931894;30;20557;-96
2022/04/14 11:56:05;;;;;;;12.25;7.13;;;;;;;18.54;90.06;100998.47;5954260;29;20059;-96
2022/04/14 11:59:08;;;;;;;11.57;6.40;;;;;;;18.43;89.32;100992.56;5909697;30;20374;-96
2022/04/14 12:02:18;;;;;;;10.43;7.03;;;;;;;18.05;90.80;100992.09;5916406;30;20047;-95
2022/04/14 12:05:24;;;;;;;12.57;6.88;;;;;;;17.82;88.64;100989.25;5926061;29;20611;-95
2022/04/14 12:08:26;;;;;;;8.68;5.70;;;;;;;17.82;88.63;100991.84;5904742;30;20051;-96
2022/04/14 12:11:30;;;;;;;12.05;6.60;;;;;;;18.25;86.55;100990.03;5959691;29;20055;-96
2022/04/14 12:14:32;;;;;;;11.82;6.57;;;;;;;19.13;88.45;100988.69;5984997;29;20046;-96
2022/04/14 12:17:37;;;;;;;8.98;6.10;;;;;;;19.87;84.43;100994.56;5982767;29;20054;-96
2022/04/14 12:20:43;;;;;;;11.25;6.00;;;;;;;19.64;77.88;100997.09;5980861;29;20045;-96
2022/04/14 12:23:52;;;;;;;9.15;6.32;;;;;;;19.53;76.42;100997.47;5965049;29;20042;-96
2022/04/14 12:26:55;;;;;;;10.52;7.25;;;;;;;19.31;75.14;100989.28;5971126;29;20462;-96
2022/04/14 12:30:08;;;;;;;15.23;7.47;;;;;;;19.32;77.65;100990.09;5976486;29;20042;-96
2022/04/14 12:33:11;;;;;;;10.70;6.95;;;;;;;19.62;76.77;100985.13;5972473;29;20422;-94
2022/04/14 12:36:13;;;;;;;11.70;6.97;;;;;;;19.43;75.13;100991.56;5977881;29;20527;-93
2022/04/14 12:39:22;;;;;;;10.63;7.60;;;;;;;19.00;74.76;100988.34;5974918;29;20382;-93
2022/04/14 12:42:28;;;;;;;12.43;7.75;;;;;;;19.01;76.91;100987.38;5975972;29;20127;-94
2022/04/14 12:45:37;;;;;;;13.63;7.82;;;;;;;19.12;75.23;100989.66;5981978;29;20471;-94
2022/04/14 12:48:39;;;;;;;11.45;8.27;;;;;;;18.86;73.75;100995.91;5988838;29;20047;-94
2022/04/14 12:51:53;;;;;;;12.00;7.88;;;;;;;18.39;76.58;100988.59;5960808;29;20157;-93
2022/04/14 12:54:58;;;;;;;10.95;8.30;;;;;;;18.06;81.81;100991.16;5970930;29;20418;-95
2022/04/14 12:58:09;;;;;;;14.10;8.93;;;;;;;17.89;81.61;100988.59;5969040;29;20066;-94
2022/04/14 13:01:12;;;;;;;9.77;7.30;;;;;;;17.92;81.13;100993.53;5969971;29;20568;-94
2022/04/14 13:04:14;;;;;;;12.45;7.70;;;;;;;17.75;77.57;100996.03;5989568;29;20034;-95
2022/04/14 13:07:17;;;;;;;10.10;7.90;;;;;;;17.58;80.72;100989.09;5979440;29;20046;-94
2022/04/14 13:10:31;;;;;;;13.30;9.05;;;;;;;17.26;85.88;100994.94;5982724;29;20049;-94
2022/04/14 13:13:34;;;;;;;14.68;9.23;;;;;;;17.17;86.67;100991.47;5984514;29;20531;-94
2022/04/14 13:16:36;;;;;;;13.73;9.52;;;;;;;17.03;86.62;100994.63;5979958;29;20080;-94
2022/04/14 13:19:40;;;;;;;14.85;10.15;;;;;;;16.79;88.12;101006.50;5982036;29;20049;-94
2022/04/14 13:22:43;;;;;;;16.63;10.25;;;;;;;16.60;93.20;101004.84;5965108;29;20088;-93
2022/04/14 13:25:47;;;;;;;16.63;11.18;;;;;;;16.43;95.90;101011.69;5980689;29;20054;-93
2022/04/14 13:28:49;;;;;;;14.18;10.57;;;;;;;16.33;98.11;101000.47;5989127;29;20495;-94
2022/04/14 13:31:51;;;;;;;18.98;11.10;;;;;;;16.20;100.00;101008.69;5982708;29;20077;-96
2022/04/14 13:34:54;;;;;;;17.58;11.32;;;;;;;15.75;100.00;101008.59;5991468;29;20056;-96
2022/04/14 13:37:56;;;;;;;19.98;11.68;;;;;;;15.50;100.00;101013.44;5984143;29;20058;-96
2022/04/14 13:41:00;;;;;;;19.05;11.63;;;;;;;15.49;100.00;101009.19;5984063;29;20137;-96
2022/04/14 13:44:03;;;;;;;18.52;11.70;;;;;;;15.36;100.00;101016.50;5982522;29;20149;-96
2022/04/14 13:47:05;;;;;;;16.83;10.52;;;;;;;15.11;100.00;101017.91;5988703;29;20481;-96
2022/04/14 13:50:15;;;;;;;19.13;11.48;;;;;;;14.97;100.00;101011.31;5991296;29;20501;-96
2022/04/14 13:53:20;;;;;;;20.40;11.90;;;;;;;15.05;100.00;101006.22;5976094;29;20545;-96
2022/04/14 13:56:22;;;;;;;20.38;12.25;;;;;;;15.29;100.00;101011.84;5985555;29;20037;-96
2022/04/14 13:59:24;;;;;;;23.23;12.10;;;;;;;15.58;100.00;101010.97;5978515;29;20046;-96
2022/04/14 14:02:26;;;;;;;20.90;12.50;;;;;;;15.77;100.00;101006.66;5978166;29;20054;-95
2022/04/14 14:05:28;;;;;;;19.35;12.65;;;;;;;16.04;100.00;101004.06;5989381;29;20041;-95
2022/04/14 14:08:30;;;;;;;19.52;12.48;;;;;;;16.33;100.00;101001.31;5972919;29;20079;-95
2022/04/14 14:11:32;;;;;;;17.88;11.35;;;;;;;16.48;100.00;100996.38;5980244;29;20042;-94
2022/04/14 14:14:35;;;;;;;16.73;9.98;;;;;;;16.43;100.00;100990.78;5979930;29;20182;-96